createdAt,value
2023-02-25T00:02:02.594Z,100874.84
2023-02-25T00:04:30.169Z,100852.44
2023-02-25T00:06:56.783Z,100867.47
2023-02-25T00:09:23.455Z,100851.81
2023-02-25T00:11:57.460Z,100824.06
2023-02-25T00:14:24.082Z,100867.69
2023-02-25T00:16:51.027Z,100842.53
2023-02-25T00:19:20.058Z,100844.38
2023-02-25T00:21:46.691Z,100861.84
2023-02-25T00:24:17.177Z,100863.59
2023-02-25T00:26:44.784Z,100865.19
2023-02-25T00:29:11.395Z,100866.03
2023-02-25T00:31:38.222Z,100867.16
2023-02-25T00:34:04.988Z,100835.41
2023-02-25T00:36:33.822Z,100807.44
2023-02-25T00:39:00.524Z,100862.72
2023-02-25T00:41:29.066Z,100847.63
2023-02-25T00:44:01.161Z,100864.78
2023-02-25T00:46:30.102Z,100866.28
2023-02-25T00:48:57.598Z,100861.00
2023-02-25T00:51:28.144Z,100867.81
2023-02-25T00:53:56.465Z,100872.34
2023-02-25T00:56:27.599Z,100872.69
2023-02-25T00:58:56.574Z,100873.53
2023-02-25T01:01:25.867Z,100872.78
2023-02-25T01:03:55.620Z,100857.75
2023-02-25T01:06:24.317Z,100827.41
2023-02-25T01:08:53.958Z,100880.00
2023-02-25T01:11:27.578Z,100842.75
2023-02-25T01:13:55.041Z,100876.13
2023-02-25T01:16:24.901Z,100884.88
2023-02-25T01:18:53.571Z,100867.16
2023-02-25T01:21:27.099Z,100886.41
2023-02-25T01:24:00.451Z,100880.88
2023-02-25T01:26:29.124Z,100879.78
2023-02-25T01:28:56.254Z,100786.50
2023-02-25T01:31:29.660Z,100877.88
2023-02-25T01:34:02.028Z,100879.88
2023-02-25T01:36:37.954Z,100869.88
2023-02-25T01:39:09.776Z,100860.25
2023-02-25T01:41:38.004Z,100888.97
2023-02-25T01:44:06.338Z,100898.06
2023-02-25T01:46:32.976Z,100878.50
2023-02-25T01:49:03.829Z,100891.69
2023-02-25T01:51:32.552Z,100845.22
2023-02-25T01:54:02.739Z,100883.56
2023-02-25T01:56:30.921Z,100864.03
2023-02-25T01:59:02.358Z,100876.00
2023-02-25T02:01:32.463Z,100880.44
2023-02-25T02:03:59.090Z,100881.94
2023-02-25T02:06:36.882Z,100880.03
2023-02-25T02:09:07.218Z,100853.34
2023-02-25T02:11:37.150Z,100873.84
2023-02-25T02:14:08.141Z,100874.63
2023-02-25T02:16:56.822Z,100871.16
2023-02-25T02:19:38.699Z,100883.16
2023-02-25T02:22:13.442Z,100889.31
2023-02-25T02:24:45.362Z,100883.78
2023-02-25T02:27:22.374Z,100896.19
2023-02-25T02:30:32.722Z,100900.53
2023-02-25T02:33:34.557Z,100875.91
2023-02-25T02:36:20.223Z,100893.28
2023-02-25T02:39:25.240Z,100894.81
2023-02-25T02:41:51.797Z,100909.81
2023-02-25T02:44:37.358Z,100908.00
2023-02-25T02:47:09.007Z,100890.47
2023-02-25T02:49:41.581Z,100914.69
2023-02-25T02:52:16.931Z,100914.78
2023-02-25T02:54:48.892Z,100887.25
2023-02-25T02:57:17.224Z,100884.53
2023-02-25T02:59:51.917Z,100898.78
2023-02-25T03:02:27.101Z,100877.19
2023-02-25T03:04:59.660Z,100898.25
2023-02-25T03:07:27.344Z,100900.13
2023-02-25T03:09:59.961Z,100887.03
2023-02-25T03:12:26.542Z,100874.28
2023-02-25T03:14:55.483Z,100868.97
2023-02-25T03:17:28.241Z,100837.03
2023-02-25T03:20:04.330Z,100873.97
2023-02-25T03:22:39.394Z,100893.06
2023-02-25T03:25:14.649Z,100885.66
2023-02-25T03:27:46.980Z,100880.25
2023-02-25T03:30:22.825Z,100885.19
2023-02-25T03:32:59.219Z,100888.34
2023-02-25T03:35:28.140Z,100889.38
2023-02-25T03:38:04.573Z,100862.47
2023-02-25T03:40:32.814Z,100894.06
2023-02-25T03:43:09.338Z,100894.91
2023-02-25T03:45:38.987Z,100902.25
2023-02-25T03:48:07.756Z,100880.63
2023-02-25T03:50:46.667Z,100865.38
2023-02-25T03:53:15.894Z,100884.28
2023-02-25T03:55:44.806Z,100886.34
2023-02-25T03:58:11.822Z,100904.19
2023-02-25T04:00:45.968Z,100867.66
2023-02-25T04:03:14.795Z,100912.44
2023-02-25T04:05:43.628Z,100891.44
2023-02-25T04:08:16.138Z,100893.63
2023-02-25T04:10:46.520Z,100908.09
2023-02-25T04:13:15.165Z,100912.41
2023-02-25T04:15:47.540Z,100907.00
2023-02-25T04:18:14.736Z,100912.97
2023-02-25T04:20:41.830Z,100922.78
2023-02-25T04:23:12.334Z,100916.53
2023-02-25T04:25:41.118Z,100907.88
2023-02-25T04:28:07.728Z,100912.53
2023-02-25T04:30:34.648Z,100914.34
2023-02-25T04:33:01.342Z,100911.09
2023-02-25T04:35:30.693Z,100921.47
2023-02-25T04:37:59.678Z,100925.56
2023-02-25T04:40:26.327Z,100925.31
2023-02-25T04:42:52.982Z,100908.22
2023-02-25T04:45:20.593Z,100906.16
2023-02-25T04:47:47.198Z,100927.88
2023-02-25T04:50:16.245Z,100923.09
2023-02-25T04:52:45.080Z,100936.28
2023-02-25T04:55:11.706Z,100935.16
2023-02-25T04:57:42.696Z,100928.53
2023-02-25T05:00:16.900Z,100922.50
2023-02-25T05:02:43.594Z,100936.63
2023-02-25T05:05:11.213Z,100924.84
2023-02-25T05:07:39.003Z,100910.09
2023-02-25T05:10:07.740Z,100916.06
2023-02-25T05:12:34.639Z,100929.44
2023-02-25T05:15:04.037Z,100940.69
2023-02-25T05:17:32.141Z,100915.50
2023-02-25T05:20:01.516Z,100910.88
2023-02-25T05:22:28.301Z,100933.38
2023-02-25T05:24:55.075Z,100938.22
2023-02-25T05:27:23.859Z,100922.72
2023-02-25T05:29:51.564Z,100931.47
2023-02-25T05:32:20.840Z,100943.81
2023-02-25T05:34:47.604Z,100939.28
2023-02-25T05:37:16.771Z,100896.97
2023-02-25T05:39:45.889Z,100947.47
2023-02-25T05:42:12.446Z,100937.53
2023-02-25T05:44:39.016Z,100934.38
2023-02-25T05:47:07.639Z,100916.13
2023-02-25T05:49:34.355Z,100919.03
2023-02-25T05:52:00.926Z,100934.00
2023-02-25T05:54:27.543Z,100947.97
2023-02-25T05:56:54.197Z,100935.94
2023-02-25T05:59:20.862Z,100936.25
2023-02-25T06:01:49.978Z,100947.69
2023-02-25T06:04:16.868Z,100947.09
2023-02-25T06:06:43.537Z,100946.53
2023-02-25T06:09:10.498Z,100944.03
2023-02-25T06:11:41.938Z,100961.34
2023-02-25T06:14:10.915Z,100955.94
2023-02-25T06:16:39.328Z,100947.84
2023-02-25T06:19:09.630Z,100947.28
2023-02-25T06:21:36.400Z,100958.94
2023-02-25T06:24:06.418Z,100937.88
2023-02-25T06:26:33.192Z,100951.84
2023-02-25T06:29:02.518Z,100959.47
2023-02-25T06:31:32.482Z,100943.88
2023-02-25T06:33:59.149Z,100962.06
2023-02-25T06:36:26.736Z,100974.06
2023-02-25T06:38:55.940Z,100972.31
2023-02-25T06:41:23.722Z,100975.28
2023-02-25T06:43:55.370Z,100984.06
2023-02-25T06:46:26.047Z,100975.66
2023-02-25T06:48:57.440Z,100963.75
2023-02-25T06:51:24.163Z,100960.94
2023-02-25T06:53:53.416Z,100960.00
2023-02-25T06:56:22.013Z,100970.16
2023-02-25T06:58:49.473Z,100893.44
2023-02-25T07:01:17.367Z,101000.31
2023-02-25T07:03:44.430Z,100983.63
2023-02-25T07:06:12.083Z,100964.91
2023-02-25T07:08:41.317Z,100998.00
2023-02-25T07:11:13.893Z,101003.31
2023-02-25T07:13:46.012Z,100985.41
2023-02-25T07:16:14.969Z,101008.91
2023-02-25T07:18:45.253Z,101020.34
2023-02-25T07:21:17.148Z,101021.75
2023-02-25T07:23:44.998Z,101022.44
2023-02-25T07:26:17.557Z,101028.69
2023-02-25T07:28:45.086Z,101018.50
2023-02-25T07:34:42.274Z,100976.66
2023-02-25T07:37:08.902Z,101029.38
2023-02-25T07:39:35.610Z,101027.81
2023-02-25T07:42:04.643Z,101025.88
2023-02-25T07:44:31.358Z,101020.69
2023-02-25T07:46:57.981Z,101031.63
2023-02-25T07:49:24.600Z,101035.75
2023-02-25T07:51:53.269Z,101037.69
2023-02-25T07:54:23.488Z,101052.03
2023-02-25T07:56:53.578Z,101033.28
2023-02-25T07:59:20.318Z,101024.91
2023-02-25T08:01:49.331Z,101050.50
2023-02-25T08:04:15.939Z,101045.84
2023-02-25T08:06:47.584Z,101056.97
2023-02-25T08:09:16.871Z,101073.50
2023-02-25T08:11:44.468Z,101068.22
2023-02-25T08:14:11.694Z,101066.94
2023-02-25T08:16:38.786Z,101038.91
2023-02-25T08:19:07.535Z,101069.09
2023-02-25T08:21:35.351Z,101061.69
2023-02-25T08:24:03.321Z,101068.81
2023-02-25T08:26:33.000Z,101064.63
2023-02-25T08:29:03.565Z,101070.00
2023-02-25T08:31:43.055Z,101071.00
2023-02-25T08:34:14.223Z,101073.03
2023-02-25T08:36:42.923Z,101068.72
2023-02-25T08:39:23.043Z,101072.06
2023-02-25T08:41:50.434Z,101075.38
2023-02-25T08:44:20.012Z,101063.81
2023-02-25T08:46:49.747Z,101078.84
2023-02-25T08:49:20.048Z,101077.88
2023-02-25T08:52:53.607Z,101072.56
2023-02-25T08:54:44.805Z,101082.25
2023-02-25T08:57:15.846Z,101082.41
2023-02-25T08:59:43.713Z,101088.25
2023-02-25T09:02:16.950Z,101084.16
2023-02-25T09:04:48.127Z,101077.47
2023-02-25T09:07:22.811Z,101092.25
2023-02-25T09:10:00.031Z,101090.31
2023-02-25T09:12:28.151Z,101086.16
2023-02-25T09:14:59.923Z,101101.91
2023-02-25T09:17:29.057Z,101101.91
2023-02-25T09:19:55.849Z,101111.06
2023-02-25T09:22:22.532Z,101103.22
2023-02-25T09:24:51.597Z,101114.31
2023-02-25T09:27:18.286Z,101118.22
2023-02-25T09:29:47.329Z,101115.91
2023-02-25T09:32:20.285Z,101137.88
2023-02-25T09:34:49.846Z,101130.78
2023-02-25T09:37:20.792Z,101138.94
2023-02-25T09:39:50.040Z,101138.25
2023-02-25T09:42:25.386Z,101144.47
2023-02-25T09:45:00.773Z,101135.31
2023-02-25T09:47:55.759Z,101134.97
2023-02-25T09:50:47.556Z,101155.50
2023-02-25T09:53:27.894Z,101147.59
2023-02-25T09:55:54.681Z,101107.53
2023-02-25T09:58:31.691Z,101150.00
2023-02-25T10:01:05.605Z,101153.25
2023-02-25T10:03:48.148Z,101165.78
2023-02-25T10:06:53.006Z,101164.41
2023-02-25T10:09:56.714Z,101165.16
2023-02-25T10:12:42.195Z,101173.19
2023-02-25T10:15:21.253Z,101181.50
2023-02-25T10:18:29.322Z,101178.44
2023-02-25T10:21:32.915Z,101182.00
2023-02-25T10:24:32.327Z,101168.91
2023-02-25T10:27:11.427Z,101161.25
2023-02-25T10:29:49.910Z,101172.84
2023-02-25T10:32:16.617Z,101193.38
2023-02-25T10:34:47.367Z,101191.72
2023-02-25T10:37:41.109Z,101186.53
2023-02-25T10:40:14.437Z,101195.59
2023-02-25T10:42:44.855Z,101195.03
2023-02-25T10:45:15.135Z,101184.16
2023-02-25T10:47:47.603Z,101198.72
2023-02-25T10:50:19.121Z,101208.47
2023-02-25T10:52:54.562Z,101196.75
2023-02-25T10:55:29.768Z,101203.09
2023-02-25T10:57:57.835Z,101196.50
2023-02-25T11:00:31.286Z,101215.03
2023-02-25T11:03:01.483Z,101208.28
2023-02-25T11:05:32.188Z,101206.91
2023-02-25T11:08:00.223Z,101203.34
2023-02-25T11:10:35.238Z,101209.63
2023-02-25T11:13:04.148Z,101213.69
2023-02-25T11:15:45.687Z,101209.41
2023-02-25T11:18:50.709Z,101203.50
2023-02-25T11:21:33.068Z,101214.56
2023-02-25T11:24:02.871Z,101206.91
2023-02-25T11:26:33.604Z,101211.25
2023-02-25T11:29:05.265Z,101227.78
2023-02-25T11:31:37.006Z,101217.88
2023-02-25T11:34:28.863Z,101216.75
2023-02-25T11:36:55.574Z,101220.72
2023-02-25T11:39:27.976Z,101219.53
2023-02-25T11:42:01.964Z,101228.06
2023-02-25T11:44:47.582Z,101210.88
2023-02-25T11:47:34.329Z,101218.88
2023-02-25T11:50:29.778Z,101229.84
2023-02-25T11:53:29.755Z,101242.84
2023-02-25T11:55:59.835Z,101246.41
2023-02-25T11:59:00.365Z,101239.69
2023-02-25T12:01:45.018Z,101257.88
2023-02-25T12:04:51.823Z,101239.97
2023-02-25T12:07:55.340Z,101255.47
2023-02-25T12:10:59.501Z,101255.28
2023-02-25T12:13:51.039Z,101268.16
2023-02-25T12:16:26.907Z,101285.34
2023-02-25T12:19:12.010Z,101297.13
2023-02-25T12:21:54.075Z,101309.69
2023-02-25T12:24:29.627Z,101289.00
2023-02-25T12:27:08.230Z,101273.69
2023-02-25T12:29:48.130Z,101289.81
2023-02-25T12:32:37.746Z,101232.72
2023-02-25T12:35:27.394Z,101273.06
2023-02-25T12:38:21.639Z,101269.59
2023-02-25T12:41:09.709Z,101274.25
2023-02-25T12:43:54.060Z,101265.38
2023-02-25T12:46:49.451Z,101248.59
2023-02-25T12:49:21.927Z,101263.31
2023-02-25T12:52:17.573Z,101252.50
2023-02-25T12:55:02.566Z,101251.28
2023-02-25T12:57:41.078Z,101257.66
2023-02-25T13:00:29.025Z,101259.97
2023-02-25T13:03:25.906Z,101260.69
2023-02-25T13:06:14.341Z,101258.25
2023-02-25T13:09:01.156Z,101255.53
2023-02-25T13:12:11.213Z,101261.25
2023-02-25T13:15:02.841Z,101268.59
2023-02-25T13:17:41.115Z,101186.97
2023-02-25T13:20:50.832Z,101269.06
2023-02-25T13:23:35.756Z,101267.00
2023-02-25T13:26:44.087Z,101265.44
2023-02-25T13:29:23.655Z,101266.47
2023-02-25T13:32:12.528Z,101272.22
2023-02-25T13:34:54.864Z,101284.78
2023-02-25T13:38:14.907Z,101286.75
2023-02-25T13:41:10.814Z,101294.13
2023-02-25T13:43:43.620Z,101290.38
2023-02-25T13:46:28.941Z,101294.00
2023-02-25T13:49:17.239Z,101292.53
2023-02-25T13:52:24.981Z,101292.28
2023-02-25T13:54:57.413Z,101291.16
2023-02-25T13:57:36.296Z,101285.28
2023-02-25T14:00:05.220Z,101288.38
2023-02-25T14:02:53.805Z,101288.44
2023-02-25T14:05:53.499Z,101305.34
2023-02-25T14:08:49.080Z,101299.41
2023-02-25T14:11:57.787Z,101300.75
2023-02-25T14:15:07.162Z,101306.66
2023-02-25T14:17:59.939Z,101312.03
2023-02-25T14:20:50.687Z,101315.31
2023-02-25T14:23:41.788Z,101319.38
2023-02-25T14:26:17.085Z,101331.81
2023-02-25T14:29:07.751Z,101320.34
2023-02-25T14:32:01.620Z,101319.59
2023-02-25T14:35:06.357Z,101335.31
2023-02-25T14:37:57.723Z,101332.03
2023-02-25T14:40:58.239Z,101328.91
2023-02-25T14:43:32.634Z,101341.63
2023-02-25T14:46:17.396Z,101331.34
2023-02-25T14:48:50.332Z,101334.59
2023-02-25T14:51:34.618Z,101353.69
2023-02-25T14:54:07.122Z,101361.31
2023-02-25T14:57:05.528Z,101364.88
2023-02-25T15:00:00.513Z,101376.50
2023-02-25T15:03:09.482Z,101377.19
2023-02-25T15:05:53.937Z,101379.94
2023-02-25T15:08:47.633Z,101377.03
2023-02-25T15:11:35.003Z,101381.63
2023-02-25T15:14:08.207Z,101379.00
2023-02-25T15:17:12.905Z,101378.91
2023-02-25T15:19:51.633Z,101389.63
2023-02-25T15:22:29.404Z,101370.25
2023-02-25T15:25:21.041Z,101387.69
2023-02-25T15:27:52.396Z,101391.25
2023-02-25T15:30:26.988Z,101392.47
2023-02-25T15:33:36.719Z,101406.75
2023-02-25T15:36:16.168Z,101412.69
2023-02-25T15:38:54.782Z,101408.78
2023-02-25T15:41:27.034Z,101415.53
2023-02-25T15:44:10.039Z,101428.03
2023-02-25T15:46:37.500Z,101425.00
2023-02-25T15:49:43.857Z,101425.44
2023-02-25T15:52:12.102Z,101433.25
2023-02-25T15:54:39.518Z,101439.84
2023-02-25T15:57:12.485Z,101441.06
2023-02-25T15:59:58.410Z,101442.22
2023-02-25T16:02:30.592Z,101456.19
2023-02-25T16:05:18.852Z,101455.88
2023-02-25T16:07:53.784Z,101471.78
2023-02-25T16:10:35.755Z,101469.75
2023-02-25T16:13:05.252Z,101452.09
2023-02-25T16:15:44.904Z,101471.03
2023-02-25T16:18:46.796Z,101484.47
2023-02-25T16:21:27.563Z,101479.47
2023-02-25T16:27:25.859Z,101501.09
2023-02-25T16:30:15.204Z,101497.91
2023-02-25T16:33:09.168Z,101506.44
2023-02-25T16:36:09.302Z,101506.06
2023-02-25T16:38:43.821Z,101513.81
2023-02-25T16:41:36.368Z,101512.41
2023-02-25T16:44:05.724Z,101520.91
2023-02-25T16:46:35.086Z,101514.16
2023-02-25T16:49:24.824Z,101528.09
2023-02-25T16:52:05.464Z,101538.34
2023-02-25T16:54:44.891Z,101545.94
2023-02-25T16:57:21.863Z,101533.31
2023-02-25T17:00:20.820Z,101557.53
2023-02-25T17:02:55.850Z,101552.53
2023-02-25T17:05:34.510Z,101555.41
2023-02-25T17:08:05.047Z,101529.91
2023-02-25T17:10:46.922Z,101553.44
2023-02-25T17:13:24.632Z,101525.81
2023-02-25T17:15:57.213Z,101553.22
2023-02-25T17:18:34.721Z,101551.00
2023-02-25T17:21:33.865Z,101553.00
2023-02-25T17:24:03.017Z,101563.41
2023-02-25T17:26:31.111Z,101517.88
2023-02-25T17:28:59.825Z,101532.25
2023-02-25T17:31:29.697Z,101562.19
2023-02-25T17:33:58.231Z,101561.00
2023-02-25T17:36:34.388Z,101583.97
2023-02-25T17:39:07.659Z,101580.84
2023-02-25T17:41:38.473Z,101592.69
2023-02-25T17:44:05.218Z,101598.28
2023-02-25T17:46:37.848Z,101603.16
2023-02-25T17:49:06.863Z,101598.03
2023-02-25T17:51:38.935Z,101607.16
2023-02-25T17:54:15.900Z,101607.50
2023-02-25T17:56:45.068Z,101613.06
2023-02-25T17:59:17.071Z,101617.59
2023-02-25T18:01:54.216Z,101621.44
2023-02-25T18:04:41.605Z,101630.91
2023-02-25T18:07:30.732Z,101629.19
2023-02-25T18:09:57.628Z,101478.19
2023-02-25T18:12:38.005Z,101643.97
2023-02-25T18:15:13.837Z,101641.59
2023-02-25T18:17:41.810Z,101633.22
2023-02-25T18:20:25.918Z,101612.97
2023-02-25T18:22:53.622Z,101609.91
2023-02-25T18:25:29.366Z,101665.81
2023-02-25T18:27:58.882Z,101666.94
2023-02-25T18:30:30.674Z,101647.41
2023-02-25T18:32:59.310Z,101669.50
2023-02-25T18:35:30.864Z,101667.06
2023-02-25T18:38:07.368Z,101689.31
2023-02-25T18:40:39.973Z,101675.63
2023-02-25T18:43:07.309Z,101696.94
2023-02-25T18:45:34.589Z,101681.28
2023-02-25T18:48:01.856Z,101694.69
2023-02-25T18:50:32.661Z,101653.94
2023-02-25T18:53:00.577Z,101703.00
2023-02-25T18:55:33.013Z,101706.72
2023-02-25T18:58:01.124Z,101690.59
2023-02-25T19:00:27.997Z,101712.56
2023-02-25T19:03:02.255Z,101689.19
2023-02-25T19:05:29.848Z,101705.75
2023-02-25T19:07:57.017Z,101692.97
2023-02-25T19:10:27.095Z,101711.59
2023-02-25T19:13:04.475Z,101696.22
2023-02-25T19:15:34.445Z,101727.91
2023-02-25T19:18:03.216Z,101713.81
2023-02-25T19:20:32.325Z,101715.72
2023-02-25T19:22:59.039Z,101697.59
2023-02-25T19:25:28.774Z,101695.38
2023-02-25T19:27:56.798Z,101696.63
2023-02-25T19:30:29.234Z,101709.00
2023-02-25T19:33:02.828Z,101727.53
2023-02-25T19:35:34.247Z,101717.28
2023-02-25T19:38:04.165Z,101721.63
2023-02-25T19:40:31.187Z,101739.47
2023-02-25T19:43:01.026Z,101740.41
2023-02-25T19:45:30.689Z,101728.34
2023-02-25T19:47:59.969Z,101694.59
2023-02-25T19:50:34.683Z,101705.31
2023-02-25T19:53:02.720Z,101703.63
2023-02-25T19:55:29.605Z,101750.09
2023-02-25T19:57:56.390Z,101746.69
2023-02-25T20:00:25.503Z,101748.78
2023-02-25T20:02:56.289Z,101709.81
2023-02-25T20:05:24.823Z,101750.91
2023-02-25T20:07:51.658Z,101726.59
2023-02-25T20:10:19.172Z,101754.59
2023-02-25T20:12:46.931Z,101762.75
2023-02-25T20:15:15.993Z,101734.81
2023-02-25T20:17:44.712Z,101762.94
2023-02-25T20:20:13.002Z,101771.09
2023-02-25T20:22:40.372Z,101772.25
2023-02-25T20:25:09.993Z,101767.81
2023-02-25T20:27:39.233Z,101776.72
2023-02-25T20:30:06.962Z,101764.66
2023-02-25T20:32:34.219Z,101767.44
2023-02-25T20:35:03.121Z,101787.94
2023-02-25T20:37:33.785Z,101776.72
2023-02-25T20:40:01.086Z,101793.59
2023-02-25T20:42:30.367Z,101794.75
2023-02-25T20:45:00.395Z,101777.41
2023-02-25T20:47:29.722Z,101777.41
2023-02-25T20:49:58.952Z,101794.06
2023-02-25T20:52:26.919Z,101795.28
2023-02-25T20:54:54.238Z,101794.34
2023-02-25T20:57:28.181Z,101774.44
2023-02-25T20:59:55.052Z,101798.03
2023-02-25T21:02:22.360Z,101799.94
2023-02-25T21:04:49.416Z,101798.38
2023-02-25T21:07:18.716Z,101790.50
2023-02-25T21:09:45.381Z,101761.06
2023-02-25T21:12:14.433Z,101817.44
2023-02-25T21:14:40.990Z,101811.47
2023-02-25T21:17:09.700Z,101815.84
2023-02-25T21:19:38.595Z,101801.13
2023-02-25T21:22:06.765Z,101813.41
2023-02-25T21:24:36.671Z,101826.72
2023-02-25T21:27:06.546Z,101801.38
2023-02-25T21:29:33.094Z,101821.84
2023-02-25T21:31:59.796Z,101831.69
2023-02-25T21:34:28.911Z,101802.84
2023-02-25T21:36:58.365Z,101835.22
2023-02-25T21:39:27.620Z,101841.38
2023-02-25T21:41:56.628Z,101707.88
2023-02-25T21:44:23.404Z,101817.63
2023-02-25T21:46:52.409Z,101842.00
2023-02-25T21:49:19.061Z,101801.94
2023-02-25T21:51:46.032Z,101852.75
2023-02-25T21:54:13.833Z,101851.97
2023-02-25T21:56:40.787Z,101855.75
2023-02-25T21:59:07.431Z,101834.81
2023-02-25T22:01:37.395Z,101863.38
2023-02-25T22:04:04.944Z,101834.66
2023-02-25T22:06:31.658Z,101832.38
2023-02-25T22:08:58.805Z,101855.28
2023-02-25T22:11:30.892Z,101873.94
2023-02-25T22:14:05.596Z,101866.88
2023-02-25T22:16:32.835Z,101854.91
2023-02-25T22:19:02.099Z,101826.97
2023-02-25T22:21:30.719Z,101864.78
2023-02-25T22:23:59.781Z,101863.88
2023-02-25T22:26:32.155Z,101892.03
2023-02-25T22:29:01.759Z,101883.19
2023-02-25T22:31:28.887Z,101882.34
2023-02-25T22:33:57.120Z,101882.34
2023-02-25T22:36:27.006Z,101854.97
2023-02-25T22:38:54.623Z,101889.97
2023-02-25T22:41:28.038Z,101860.91
2023-02-25T22:43:55.457Z,101888.09
2023-02-25T22:46:26.265Z,101875.81
2023-02-25T22:48:54.202Z,101887.19
2023-02-25T22:51:29.662Z,101840.63
2023-02-25T22:53:56.759Z,101871.28
2023-02-25T22:56:26.450Z,101860.63
2023-02-25T22:58:53.426Z,101873.81
2023-02-25T23:01:22.279Z,101862.25
2023-02-25T23:03:52.629Z,101888.75
2023-02-25T23:06:34.338Z,101884.25
2023-02-25T23:09:11.801Z,101895.81
2023-02-25T23:11:41.898Z,101896.81
2023-02-25T23:14:08.500Z,101896.94
2023-02-25T23:16:41.585Z,101880.38
2023-02-25T23:19:13.652Z,101887.13
2023-02-25T23:21:40.233Z,101890.91
2023-02-25T23:24:08.775Z,101893.53
2023-02-25T23:26:40.617Z,101894.50
2023-02-25T23:29:09.269Z,101890.22
2023-02-25T23:31:47.055Z,101898.22
2023-02-25T23:34:23.097Z,101876.28
2023-02-25T23:36:50.129Z,101902.72
2023-02-25T23:39:19.126Z,101743.44
2023-02-25T23:41:46.057Z,101873.84
2023-02-25T23:44:16.387Z,101895.66
2023-02-25T23:46:44.066Z,101903.34
2023-02-25T23:49:18.219Z,101904.94
2023-02-25T23:51:48.910Z,101895.22
2023-02-25T23:54:19.922Z,101903.81
2023-02-25T23:56:47.209Z,101907.22
2023-02-25T23:59:14.313Z,101903.81
